East Maine, New York
Current Conditions -  °F | °C
As of 4:53 AM on Wednesday 22 Oct 2014 (Local Time) from KBGM Reporting Station
Overcast Overcast  
Wind Chill: 44°   Ceiling: 600
Heat Index: 48°   Visibility: 10mi
Dew Point: 46°   Wind: 9mph
Humidity: 93%   Direction: 30°NNE
Pressure: 29.99"   Gusts: NA
Location:  42.1768°N, 76.0035°W
Report Text: KBGM 220853Z AUTO 03008KT 10SM OVC006 09/08 A2999 RMK AO2 CIG 004V008 SLP159 60000 T00890078 53007
Loading
Personal Weather Stations






























Interactive Weather Map
Tropical Storm Tracking
New forecast layout! Learn more

10-Day Weather Forecast

Advertisements
Track Severe Weather on mobile